sensor_id;sensor_type;location;lat;lon;timestamp;pressure;altitude;pressure_sealevel;temperature;humidity
10176;BME280;18221;38.704;0.152;2023-02-28T00:05:44;98640.63;;;8.87;26.61
10176;BME280;18221;38.704;0.152;2023-02-28T00:08:12;98644.97;;;8.88;26.93
10176;BME280;18221;38.704;0.152;2023-02-28T00:10:40;98650.00;;;8.91;27.07
10176;BME280;18221;38.704;0.152;2023-02-28T00:13:09;98649.00;;;8.92;27.33
10176;BME280;18221;38.704;0.152;2023-02-28T00:15:37;98647.50;;;8.99;27.05
10176;BME280;18221;38.704;0.152;2023-02-28T00:18:06;98646.38;;;9.01;27.14
10176;BME280;18221;38.704;0.152;2023-02-28T00:20:34;98645.00;;;9.07;27.17
10176;BME280;18221;38.704;0.152;2023-02-28T00:23:03;98637.19;;;9.15;27.49
10176;BME280;18221;38.704;0.152;2023-02-28T00:25:32;98640.94;;;9.12;27.60
10176;BME280;18221;38.704;0.152;2023-02-28T00:28:00;98648.31;;;9.09;27.52
10176;BME280;18221;38.704;0.152;2023-02-28T00:30:28;98647.63;;;9.07;27.53
10176;BME280;18221;38.704;0.152;2023-02-28T00:32:56;98644.56;;;9.02;27.44
10176;BME280;18221;38.704;0.152;2023-02-28T00:35:25;98641.50;;;9.06;27.79
10176;BME280;18221;38.704;0.152;2023-02-28T00:37:54;98643.56;;;8.93;27.75
10176;BME280;18221;38.704;0.152;2023-02-28T00:40:24;98653.06;;;8.96;27.97
10176;BME280;18221;38.704;0.152;2023-02-28T00:42:53;98640.63;;;8.87;27.81
10176;BME280;18221;38.704;0.152;2023-02-28T00:45:21;98644.13;;;8.87;27.77
10176;BME280;18221;38.704;0.152;2023-02-28T00:47:49;98633.00;;;8.84;27.86
10176;BME280;18221;38.704;0.152;2023-02-28T00:50:18;98634.50;;;8.77;28.34
10176;BME280;18221;38.704;0.152;2023-02-28T00:52:47;98633.09;;;8.73;28.07
10176;BME280;18221;38.704;0.152;2023-02-28T00:55:16;98627.81;;;8.73;28.50
10176;BME280;18221;38.704;0.152;2023-02-28T00:57:46;98621.25;;;8.77;28.66
10176;BME280;18221;38.704;0.152;2023-02-28T01:00:15;98608.00;;;8.77;28.46
10176;BME280;18221;38.704;0.152;2023-02-28T01:02:43;98605.53;;;8.85;28.50
10176;BME280;18221;38.704;0.152;2023-02-28T01:05:12;98601.63;;;8.89;27.81
10176;BME280;18221;38.704;0.152;2023-02-28T01:07:40;98595.06;;;8.83;28.20
10176;BME280;18221;38.704;0.152;2023-02-28T01:10:10;98597.03;;;8.91;27.83
10176;BME280;18221;38.704;0.152;2023-02-28T01:12:39;98604.41;;;8.87;28.02
10176;BME280;18221;38.704;0.152;2023-02-28T01:15:11;98604.28;;;8.89;27.85
10176;BME280;18221;38.704;0.152;2023-02-28T01:17:40;98605.81;;;9.01;27.66
10176;BME280;18221;38.704;0.152;2023-02-28T01:20:10;98603.97;;;9.11;28.30
10176;BME280;18221;38.704;0.152;2023-02-28T01:22:38;98608.03;;;9.15;27.91
10176;BME280;18221;38.704;0.152;2023-02-28T01:25:07;98611.66;;;9.14;28.30
10176;BME280;18221;38.704;0.152;2023-02-28T01:27:36;98604.44;;;8.97;27.65
10176;BME280;18221;38.704;0.152;2023-02-28T01:30:10;98600.09;;;8.96;27.84
10176;BME280;18221;38.704;0.152;2023-02-28T01:32:39;98607.75;;;8.99;27.74
10176;BME280;18221;38.704;0.152;2023-02-28T01:35:08;98610.81;;;8.85;28.39
10176;BME280;18221;38.704;0.152;2023-02-28T01:37:36;98612.06;;;8.81;28.78
10176;BME280;18221;38.704;0.152;2023-02-28T01:40:06;98614.69;;;8.71;27.70
10176;BME280;18221;38.704;0.152;2023-02-28T01:42:35;98618.59;;;8.77;27.76
10176;BME280;18221;38.704;0.152;2023-02-28T01:45:20;98617.06;;;8.74;28.37
10176;BME280;18221;38.704;0.152;2023-02-28T01:47:54;98622.25;;;8.76;28.20
10176;BME280;18221;38.704;0.152;2023-02-28T01:50:28;98626.13;;;8.72;27.97
10176;BME280;18221;38.704;0.152;2023-02-28T01:53:02;98620.56;;;8.75;27.89
10176;BME280;18221;38.704;0.152;2023-02-28T01:55:33;98619.88;;;8.73;28.24
10176;BME280;18221;38.704;0.152;2023-02-28T01:58:06;98634.63;;;8.65;28.25
10176;BME280;18221;38.704;0.152;2023-02-28T02:00:37;98628.06;;;8.69;28.25
10176;BME280;18221;38.704;0.152;2023-02-28T02:03:13;98612.75;;;8.63;28.10
10176;BME280;18221;38.704;0.152;2023-02-28T02:05:42;98607.72;;;8.60;28.23
10176;BME280;18221;38.704;0.152;2023-02-28T02:08:17;98612.03;;;8.61;27.63
10176;BME280;18221;38.704;0.152;2023-02-28T02:10:50;98608.41;;;8.53;28.19
10176;BME280;18221;38.704;0.152;2023-02-28T02:13:37;98610.94;;;8.54;28.55
10176;BME280;18221;38.704;0.152;2023-02-28T02:16:28;98601.88;;;8.57;28.23
10176;BME280;18221;38.704;0.152;2023-02-28T02:19:20;98595.16;;;8.53;28.02
10176;BME280;18221;38.704;0.152;2023-02-28T02:25:27;98584.56;;;8.43;27.67
10176;BME280;18221;38.704;0.152;2023-02-28T02:28:36;98578.44;;;8.33;27.48
10176;BME280;18221;38.704;0.152;2023-02-28T02:31:48;98574.72;;;8.05;27.07
10176;BME280;18221;38.704;0.152;2023-02-28T02:34:46;98570.16;;;8.17;26.87
10176;BME280;18221;38.704;0.152;2023-02-28T02:37:29;98575.97;;;8.11;26.52
10176;BME280;18221;38.704;0.152;2023-02-28T02:40:10;98577.13;;;8.18;26.66
10176;BME280;18221;38.704;0.152;2023-02-28T02:42:47;98572.94;;;8.25;26.30
10176;BME280;18221;38.704;0.152;2023-02-28T02:45:25;98562.88;;;8.00;26.26
10176;BME280;18221;38.704;0.152;2023-02-28T02:47:59;98560.91;;;8.02;26.08
10176;BME280;18221;38.704;0.152;2023-02-28T02:50:36;98562.00;;;7.90;26.04
10176;BME280;18221;38.704;0.152;2023-02-28T02:53:08;98566.38;;;7.80;25.66
10176;BME280;18221;38.704;0.152;2023-02-28T02:55:44;98569.94;;;7.90;25.79
10176;BME280;18221;38.704;0.152;2023-02-28T02:58:19;98564.09;;;7.96;26.16
10176;BME280;18221;38.704;0.152;2023-02-28T03:00:54;98566.19;;;7.92;25.46
10176;BME280;18221;38.704;0.152;2023-02-28T03:03:24;98567.16;;;8.01;25.77
10176;BME280;18221;38.704;0.152;2023-02-28T03:06:00;98564.72;;;8.19;26.13
10176;BME280;18221;38.704;0.152;2023-02-28T03:08:34;98559.56;;;8.07;25.85
10176;BME280;18221;38.704;0.152;2023-02-28T03:11:05;98550.19;;;8.03;25.26
10176;BME280;18221;38.704;0.152;2023-02-28T03:17:03;98546.00;;;8.01;25.05
10176;BME280;18221;38.704;0.152;2023-02-28T03:19:55;98547.94;;;7.89;24.53
10176;BME280;18221;38.704;0.152;2023-02-28T03:22:50;98555.56;;;7.83;24.74
10176;BME280;18221;38.704;0.152;2023-02-28T03:25:30;98548.47;;;7.83;25.05
10176;BME280;18221;38.704;0.152;2023-02-28T03:28:12;98556.72;;;7.90;25.08
10176;BME280;18221;38.704;0.152;2023-02-28T03:30:51;98556.25;;;7.85;24.90
10176;BME280;18221;38.704;0.152;2023-02-28T03:33:25;98556.53;;;7.82;25.20
10176;BME280;18221;38.704;0.152;2023-02-28T03:35:59;98556.41;;;7.93;25.57
10176;BME280;18221;38.704;0.152;2023-02-28T03:38:36;98548.31;;;7.85;24.85
10176;BME280;18221;38.704;0.152;2023-02-28T03:41:11;98548.63;;;7.82;24.78
10176;BME280;18221;38.704;0.152;2023-02-28T03:43:47;98544.97;;;7.73;24.72
10176;BME280;18221;38.704;0.152;2023-02-28T03:46:23;98542.97;;;7.66;24.82
10176;BME280;18221;38.704;0.152;2023-02-28T03:48:57;98547.38;;;7.86;24.59
10176;BME280;18221;38.704;0.152;2023-02-28T03:51:32;98541.59;;;8.11;24.87
10176;BME280;18221;38.704;0.152;2023-02-28T03:54:08;98538.41;;;8.17;24.80
10176;BME280;18221;38.704;0.152;2023-02-28T03:56:43;98535.50;;;8.20;24.26
10176;BME280;18221;38.704;0.152;2023-02-28T03:59:18;98539.28;;;8.27;24.26
10176;BME280;18221;38.704;0.152;2023-02-28T04:01:49;98537.03;;;8.23;24.37
10176;BME280;18221;38.704;0.152;2023-02-28T04:04:18;98532.53;;;8.14;24.04
10176;BME280;18221;38.704;0.152;2023-02-28T04:06:51;98539.41;;;8.26;24.81
10176;BME280;18221;38.704;0.152;2023-02-28T04:09:21;98530.78;;;8.24;24.19
10176;BME280;18221;38.704;0.152;2023-02-28T04:11:52;98534.97;;;8.26;23.92
10176;BME280;18221;38.704;0.152;2023-02-28T04:14:22;98535.50;;;8.20;23.79
10176;BME280;18221;38.704;0.152;2023-02-28T04:16:51;98535.50;;;8.20;23.77
10176;BME280;18221;38.704;0.152;2023-02-28T04:19:19;98545.13;;;8.21;23.87
10176;BME280;18221;38.704;0.152;2023-02-28T04:21:50;98545.13;;;8.21;23.23
10176;BME280;18221;38.704;0.152;2023-02-28T04:24:22;98544.94;;;8.13;23.22
10176;BME280;18221;38.704;0.152;2023-02-28T04:26:53;98546.00;;;8.01;23.81
10176;BME280;18221;38.704;0.152;2023-02-28T04:29:24;98542.16;;;8.05;23.67
10176;BME280;18221;38.704;0.152;2023-02-28T04:31:54;98548.63;;;7.91;23.56
10176;BME280;18221;38.704;0.152;2023-02-28T04:34:24;98548.78;;;7.90;23.70
10176;BME280;18221;38.704;0.152;2023-02-28T04:36:53;98560.50;;;7.97;23.73
10176;BME280;18221;38.704;0.152;2023-02-28T04:39:24;98564.41;;;8.02;23.69
10176;BME280;18221;38.704;0.152;2023-02-28T04:41:53;98574.97;;;8.02;23.53
10176;BME280;18221;38.704;0.152;2023-02-28T04:44:21;98589.84;;;8.03;23.90
10176;BME280;18221;38.704;0.152;2023-02-28T04:46:50;98586.66;;;8.00;23.60
10176;BME280;18221;38.704;0.152;2023-02-28T04:49:18;98587.97;;;8.15;23.73
10176;BME280;18221;38.704;0.152;2023-02-28T04:51:46;98587.03;;;8.26;23.76
10176;BME280;18221;38.704;0.152;2023-02-28T04:54:16;98601.00;;;8.37;23.95
10176;BME280;18221;38.704;0.152;2023-02-28T04:56:46;98592.88;;;8.29;24.07
10176;BME280;18221;38.704;0.152;2023-02-28T04:59:16;98601.72;;;8.09;24.14
10176;BME280;18221;38.704;0.152;2023-02-28T05:01:47;98607.59;;;8.22;24.30
10176;BME280;18221;38.704;0.152;2023-02-28T05:04:16;98607.59;;;8.13;24.70
10176;BME280;18221;38.704;0.152;2023-02-28T05:06:45;98615.19;;;8.06;24.37
10176;BME280;18221;38.704;0.152;2023-02-28T05:09:13;98622.72;;;8.31;24.42
10176;BME280;18221;38.704;0.152;2023-02-28T05:11:41;98620.25;;;8.19;24.62
10176;BME280;18221;38.704;0.152;2023-02-28T05:14:14;98615.25;;;8.16;24.83
10176;BME280;18221;38.704;0.152;2023-02-28T05:16:42;98622.03;;;8.08;24.99
10176;BME280;18221;38.704;0.152;2023-02-28T05:19:11;98626.75;;;8.05;24.80
10176;BME280;18221;38.704;0.152;2023-02-28T05:21:41;98627.97;;;8.01;25.22
10176;BME280;18221;38.704;0.152;2023-02-28T05:24:12;98630.28;;;8.15;25.09
10176;BME280;18221;38.704;0.152;2023-02-28T05:26:43;98626.53;;;8.18;25.47
10176;BME280;18221;38.704;0.152;2023-02-28T05:29:13;98632.31;;;8.02;25.16
10176;BME280;18221;38.704;0.152;2023-02-28T05:31:41;98625.09;;;8.14;25.52
10176;BME280;18221;38.704;0.152;2023-02-28T05:34:10;98637.34;;;8.05;25.55
10176;BME280;18221;38.704;0.152;2023-02-28T05:36:39;98629.22;;;8.27;25.35
10176;BME280;18221;38.704;0.152;2023-02-28T05:39:08;98629.41;;;8.45;25.43
10176;BME280;18221;38.704;0.152;2023-02-28T05:41:40;98632.78;;;8.56;25.12
10176;BME280;18221;38.704;0.152;2023-02-28T05:44:10;98633.06;;;8.53;25.39
10176;BME280;18221;38.704;0.152;2023-02-28T05:46:40;98635.00;;;8.51;25.56
10176;BME280;18221;38.704;0.152;2023-02-28T05:49:08;98625.53;;;8.39;25.91
10176;BME280;18221;38.704;0.152;2023-02-28T05:51:37;98644.91;;;8.19;26.50
10176;BME280;18221;38.704;0.152;2023-02-28T05:54:06;98650.81;;;8.32;26.49
10176;BME280;18221;38.704;0.152;2023-02-28T05:56:35;98650.28;;;8.38;26.34
10176;BME280;18221;38.704;0.152;2023-02-28T05:59:05;98654.50;;;8.50;26.03
10176;BME280;18221;38.704;0.152;2023-02-28T06:01:39;98654.09;;;8.25;26.19
10176;BME280;18221;38.704;0.152;2023-02-28T06:04:10;98650.56;;;8.35;26.50
10176;BME280;18221;38.704;0.152;2023-02-28T06:06:40;98660.44;;;8.33;26.72
10176;BME280;18221;38.704;0.152;2023-02-28T06:09:09;98655.84;;;8.35;26.86
10176;BME280;18221;38.704;0.152;2023-02-28T06:11:37;98656.91;;;8.23;27.15
10176;BME280;18221;38.704;0.152;2023-02-28T06:14:06;98665.31;;;8.28;27.61
10176;BME280;18221;38.704;0.152;2023-02-28T06:16:35;98666.31;;;8.37;27.61
10176;BME280;18221;38.704;0.152;2023-02-28T06:19:06;98665.84;;;8.32;27.15
10176;BME280;18221;38.704;0.152;2023-02-28T06:21:34;98669.44;;;8.21;27.04
10176;BME280;18221;38.704;0.152;2023-02-28T06:24:04;98673.44;;;8.46;26.90
10176;BME280;18221;38.704;0.152;2023-02-28T06:26:32;98675.63;;;8.31;26.75
10176;BME280;18221;38.704;0.152;2023-02-28T06:29:01;98668.38;;;8.33;26.79
10176;BME280;18221;38.704;0.152;2023-02-28T06:31:30;98669.34;;;8.32;27.13
10176;BME280;18221;38.704;0.152;2023-02-28T06:33:58;98667.56;;;8.42;26.78
10176;BME280;18221;38.704;0.152;2023-02-28T06:36:28;98676.72;;;8.29;27.21
10176;BME280;18221;38.704;0.152;2023-02-28T06:38:57;98666.78;;;8.61;26.64
10176;BME280;18221;38.704;0.152;2023-02-28T06:41:26;98676.31;;;8.83;26.01
10176;BME280;18221;38.704;0.152;2023-02-28T06:43:55;98673.81;;;8.91;26.01
10176;BME280;18221;38.704;0.152;2023-02-28T06:46:24;98681.28;;;8.66;26.24
10176;BME280;18221;38.704;0.152;2023-02-28T06:48:52;98678.28;;;8.81;26.08
10176;BME280;18221;38.704;0.152;2023-02-28T06:51:21;98676.31;;;8.73;26.26
10176;BME280;18221;38.704;0.152;2023-02-28T06:53:52;98675.19;;;8.76;26.41
10176;BME280;18221;38.704;0.152;2023-02-28T06:56:20;98676.25;;;8.63;26.86
10176;BME280;18221;38.704;0.152;2023-02-28T06:58:50;98667.19;;;8.56;26.76
10176;BME280;18221;38.704;0.152;2023-02-28T07:01:19;98675.16;;;8.66;27.16
10176;BME280;18221;38.704;0.152;2023-02-28T07:03:49;98679.50;;;8.77;26.75
10176;BME280;18221;38.704;0.152;2023-02-28T07:06:18;98683.16;;;8.85;26.24
10176;BME280;18221;38.704;0.152;2023-02-28T07:08:47;98681.63;;;8.92;26.71
10176;BME280;18221;38.704;0.152;2023-02-28T07:11:17;98669.91;;;8.85;27.02
10176;BME280;18221;38.704;0.152;2023-02-28T07:13:45;98683.28;;;8.84;27.15
10176;BME280;18221;38.704;0.152;2023-02-28T07:16:14;98688.00;;;8.71;27.02
10176;BME280;18221;38.704;0.152;2023-02-28T07:18:42;98682.81;;;8.69;26.61
10176;BME280;18221;38.704;0.152;2023-02-28T07:21:11;98670.72;;;8.76;26.48
10176;BME280;18221;38.704;0.152;2023-02-28T07:23:40;98674.03;;;8.68;26.33
10176;BME280;18221;38.704;0.152;2023-02-28T07:26:14;98687.44;;;8.77;25.81
10176;BME280;18221;38.704;0.152;2023-02-28T07:28:46;98683.41;;;8.73;25.90
10176;BME280;18221;38.704;0.152;2023-02-28T07:31:15;98695.53;;;8.75;25.17
10176;BME280;18221;38.704;0.152;2023-02-28T07:33:45;98695.69;;;8.83;24.70
10176;BME280;18221;38.704;0.152;2023-02-28T07:36:17;98702.94;;;8.91;24.68
10176;BME280;18221;38.704;0.152;2023-02-28T07:38:48;98715.59;;;8.78;24.34
10176;BME280;18221;38.704;0.152;2023-02-28T07:41:18;98711.75;;;9.01;24.78
10176;BME280;18221;38.704;0.152;2023-02-28T07:43:49;98715.63;;;8.87;24.33
10176;BME280;18221;38.704;0.152;2023-02-28T07:46:18;98720.78;;;8.89;24.54
10176;BME280;18221;38.704;0.152;2023-02-28T07:48:47;98717.41;;;8.87;24.28
10176;BME280;18221;38.704;0.152;2023-02-28T07:51:16;98723.13;;;8.73;24.37
10176;BME280;18221;38.704;0.152;2023-02-28T07:53:45;98719.63;;;8.82;24.03
10176;BME280;18221;38.704;0.152;2023-02-28T07:56:13;98719.13;;;8.97;24.37
10176;BME280;18221;38.704;0.152;2023-02-28T07:58:42;98728.09;;;9.25;23.96
10176;BME280;18221;38.704;0.152;2023-02-28T08:01:13;98734.47;;;9.13;23.88
10176;BME280;18221;38.704;0.152;2023-02-28T08:03:41;98718.72;;;9.02;23.94
10176;BME280;18221;38.704;0.152;2023-02-28T08:06:19;98716.78;;;9.13;24.09
10176;BME280;18221;38.704;0.152;2023-02-28T08:08:49;98730.16;;;9.21;23.69
10176;BME280;18221;38.704;0.152;2023-02-28T08:11:18;98723.97;;;8.92;24.08
10176;BME280;18221;38.704;0.152;2023-02-28T08:13:47;98730.16;;;9.12;23.97
10176;BME280;18221;38.704;0.152;2023-02-28T08:16:17;98735.31;;;9.23;23.83
10176;BME280;18221;38.704;0.152;2023-02-28T08:18:49;98742.16;;;9.16;24.07
10176;BME280;18221;38.704;0.152;2023-02-28T08:21:18;98745.78;;;9.34;24.23
10176;BME280;18221;38.704;0.152;2023-02-28T08:23:48;98751.94;;;9.25;24.08
10176;BME280;18221;38.704;0.152;2023-02-28T08:26:17;98744.69;;;9.17;24.03
10176;BME280;18221;38.704;0.152;2023-02-28T08:28:46;98740.75;;;9.31;24.44
10176;BME280;18221;38.704;0.152;2023-02-28T08:31:17;98737.53;;;9.08;24.47
10176;BME280;18221;38.704;0.152;2023-02-28T08:33:46;98747.31;;;9.37;24.57
10176;BME280;18221;38.704;0.152;2023-02-28T08:36:18;98737.16;;;9.32;24.60
10176;BME280;18221;38.704;0.152;2023-02-28T08:38:47;98746.22;;;9.29;24.17
10176;BME280;18221;38.704;0.152;2023-02-28T08:41:15;98739.66;;;9.33;24.51
10176;BME280;18221;38.704;0.152;2023-02-28T08:43:45;98736.31;;;9.31;24.30
10176;BME280;18221;38.704;0.152;2023-02-28T08:46:14;98738.84;;;9.33;24.69
10176;BME280;18221;38.704;0.152;2023-02-28T08:48:45;98736.31;;;9.41;24.34
10176;BME280;18221;38.704;0.152;2023-02-28T08:51:15;98734.78;;;9.48;25.00
10176;BME280;18221;38.704;0.152;2023-02-28T08:53:45;98733.00;;;9.49;24.60
10176;BME280;18221;38.704;0.152;2023-02-28T08:56:17;98729.22;;;9.51;24.46
10176;BME280;18221;38.704;0.152;2023-02-28T08:58:47;98724.72;;;9.71;24.75
10176;BME280;18221;38.704;0.152;2023-02-28T09:01:18;98727.09;;;9.83;24.31
10176;BME280;18221;38.704;0.152;2023-02-28T09:03:50;98716.94;;;9.69;24.18
10176;BME280;18221;38.704;0.152;2023-02-28T09:06:21;98714.81;;;9.82;24.83
10176;BME280;18221;38.704;0.152;2023-02-28T09:08:51;98717.59;;;9.81;24.68
10176;BME280;18221;38.704;0.152;2023-02-28T09:11:20;98723.47;;;9.84;24.34
10176;BME280;18221;38.704;0.152;2023-02-28T09:13:48;98723.84;;;10.09;24.71
10176;BME280;18221;38.704;0.152;2023-02-28T09:16:17;98713.78;;;10.03;24.91
10176;BME280;18221;38.704;0.152;2023-02-28T09:18:48;98723.44;;;10.04;25.17
10176;BME280;18221;38.704;0.152;2023-02-28T09:21:18;98718.41;;;10.01;24.23
10176;BME280;18221;38.704;0.152;2023-02-28T09:23:49;98714.06;;;10.00;24.70
10176;BME280;18221;38.704;0.152;2023-02-28T09:26:20;98716.13;;;10.25;24.00
10176;BME280;18221;38.704;0.152;2023-02-28T09:28:51;98723.81;;;10.28;24.39
10176;BME280;18221;38.704;0.152;2023-02-28T09:31:22;98733.31;;;10.21;23.86
10176;BME280;18221;38.704;0.152;2023-02-28T09:33:57;98732.22;;;10.60;24.43
10176;BME280;18221;38.704;0.152;2023-02-28T09:36:27;98727.06;;;10.49;24.15
10176;BME280;18221;38.704;0.152;2023-02-28T09:38:56;98737.06;;;10.65;24.64
10176;BME280;18221;38.704;0.152;2023-02-28T09:41:27;98734.69;;;10.71;24.84
10176;BME280;18221;38.704;0.152;2023-02-28T09:44:00;98732.81;;;10.81;24.15
10176;BME280;18221;38.704;0.152;2023-02-28T09:46:35;98729.50;;;10.70;24.67
10176;BME280;18221;38.704;0.152;2023-02-28T09:49:14;98731.75;;;10.65;24.69
10176;BME280;18221;38.704;0.152;2023-02-28T09:51:52;98729.28;;;10.63;25.24
10176;BME280;18221;38.704;0.152;2023-02-28T09:54:26;98745.19;;;10.90;25.22
10176;BME280;18221;38.704;0.152;2023-02-28T09:57:00;98746.72;;;10.93;24.76
10176;BME280;18221;38.704;0.152;2023-02-28T09:59:41;98757.44;;;11.01;25.61
10176;BME280;18221;38.704;0.152;2023-02-28T10:02:47;98758.56;;;11.26;26.03
10176;BME280;18221;38.704;0.152;2023-02-28T10:05:23;98764.75;;;11.16;26.11
10176;BME280;18221;38.704;0.152;2023-02-28T10:08:08;98783.84;;;11.30;26.55
10176;BME280;18221;38.704;0.152;2023-02-28T10:10:42;98786.13;;;11.25;26.83
10176;BME280;18221;38.704;0.152;2023-02-28T10:13:23;98785.31;;;11.59;26.66
10176;BME280;18221;38.704;0.152;2023-02-28T10:15:58;98785.91;;;11.53;27.47
10176;BME280;18221;38.704;0.152;2023-02-28T10:18:40;98791.78;;;11.57;27.95
10176;BME280;18221;38.704;0.152;2023-02-28T10:21:21;98802.63;;;11.63;27.73
10176;BME280;18221;38.704;0.152;2023-02-28T10:23:59;98806.09;;;11.91;26.54
10176;BME280;18221;38.704;0.152;2023-02-28T10:26:32;98812.88;;;11.86;27.37
10176;BME280;18221;38.704;0.152;2023-02-28T10:29:01;98811.81;;;11.96;27.15
10176;BME280;18221;38.704;0.152;2023-02-28T10:31:30;98803.59;;;11.90;27.06
10176;BME280;18221;38.704;0.152;2023-02-28T10:33:58;98817.44;;;11.93;26.71
10176;BME280;18221;38.704;0.152;2023-02-28T10:36:28;98818.25;;;11.76;26.69
10176;BME280;18221;38.704;0.152;2023-02-28T10:38:56;98828.53;;;11.89;26.80
10176;BME280;18221;38.704;0.152;2023-02-28T10:41:31;98827.78;;;11.96;27.34
10176;BME280;18221;38.704;0.152;2023-02-28T10:44:20;98833.91;;;11.79;26.59
10176;BME280;18221;38.704;0.152;2023-02-28T10:46:50;98845.25;;;11.99;27.00
10176;BME280;18221;38.704;0.152;2023-02-28T10:49:22;98848.81;;;12.07;26.57
10176;BME280;18221;38.704;0.152;2023-02-28T10:51:56;98847.97;;;11.89;26.95
10176;BME280;18221;38.704;0.152;2023-02-28T10:54:30;98840.00;;;11.89;26.17
10176;BME280;18221;38.704;0.152;2023-02-28T10:57:12;98848.88;;;12.15;25.55
10176;BME280;18221;38.704;0.152;2023-02-28T10:59:43;98835.25;;;12.18;26.05
10176;BME280;18221;38.704;0.152;2023-02-28T11:02:35;98848.66;;;12.26;25.47
10176;BME280;18221;38.704;0.152;2023-02-28T11:05:28;98836.25;;;12.35;25.57
10176;BME280;18221;38.704;0.152;2023-02-28T11:08:04;98851.16;;;12.28;25.96
10176;BME280;18221;38.704;0.152;2023-02-28T11:10:34;98845.00;;;12.27;25.63
10176;BME280;18221;38.704;0.152;2023-02-28T11:13:03;98844.00;;;12.46;25.27
10176;BME280;18221;38.704;0.152;2023-02-28T11:15:33;98841.63;;;12.69;25.77
10176;BME280;18221;38.704;0.152;2023-02-28T11:18:19;98836.97;;;12.96;25.02
10176;BME280;18221;38.704;0.152;2023-02-28T11:20:50;98834.91;;;13.08;24.50
10176;BME280;18221;38.704;0.152;2023-02-28T11:23:23;98845.91;;;13.13;24.15
10176;BME280;18221;38.704;0.152;2023-02-28T11:25:58;98846.63;;;13.23;24.04
10176;BME280;18221;38.704;0.152;2023-02-28T11:28:31;98851.28;;;13.21;23.90
10176;BME280;18221;38.704;0.152;2023-02-28T11:31:14;98854.34;;;13.34;23.75
10176;BME280;18221;38.704;0.152;2023-02-28T11:33:47;98855.47;;;13.24;23.89
10176;BME280;18221;38.704;0.152;2023-02-28T11:36:21;98851.88;;;13.49;23.38
10176;BME280;18221;38.704;0.152;2023-02-28T11:38:55;98859.00;;;13.40;23.07
10176;BME280;18221;38.704;0.152;2023-02-28T11:41:42;98864.03;;;13.43;23.32
10176;BME280;18221;38.704;0.152;2023-02-28T11:44:31;98880.44;;;13.65;23.14
10176;BME280;18221;38.704;0.152;2023-02-28T11:47:12;98895.66;;;13.80;22.92
10176;BME280;18221;38.704;0.152;2023-02-28T11:50:03;98893.31;;;13.77;22.13
10176;BME280;18221;38.704;0.152;2023-02-28T11:52:47;98894.09;;;13.61;22.39
10176;BME280;18221;38.704;0.152;2023-02-28T11:55:25;98887.78;;;13.21;22.10
10176;BME280;18221;38.704;0.152;2023-02-28T11:58:19;98885.84;;;13.39;22.64
10176;BME280;18221;38.704;0.152;2023-02-28T12:01:09;98887.16;;;13.69;21.71
10176;BME280;18221;38.704;0.152;2023-02-28T12:03:53;98895.50;;;13.74;21.32
10176;BME280;18221;38.704;0.152;2023-02-28T12:06:30;98885.41;;;13.51;20.92
10176;BME280;18221;38.704;0.152;2023-02-28T12:09:23;98895.81;;;13.71;21.70
10176;BME280;18221;38.704;0.152;2023-02-28T12:12:06;98887.66;;;13.80;21.25
10176;BME280;18221;38.704;0.152;2023-02-28T12:18:23;98883.91;;;14.23;21.56
10176;BME280;18221;38.704;0.152;2023-02-28T12:21:07;98888.72;;;14.19;20.89
10176;BME280;18221;38.704;0.152;2023-02-28T12:24:01;98888.25;;;14.80;21.30
10176;BME280;18221;38.704;0.152;2023-02-28T12:26:40;98873.31;;;15.02;20.57
10176;BME280;18221;38.704;0.152;2023-02-28T12:29:19;98881.66;;;15.07;20.14
10176;BME280;18221;38.704;0.152;2023-02-28T12:31:56;98877.69;;;14.95;20.78
10176;BME280;18221;38.704;0.152;2023-02-28T12:34:33;98881.34;;;15.10;20.34
10176;BME280;18221;38.704;0.152;2023-02-28T12:37:12;98881.75;;;15.46;22.18
10176;BME280;18221;38.704;0.152;2023-02-28T12:39:48;98879.69;;;15.64;22.13
10176;BME280;18221;38.704;0.152;2023-02-28T12:42:25;98881.56;;;15.86;25.82
10176;BME280;18221;38.704;0.152;2023-02-28T12:45:02;98880.44;;;16.03;26.73
10176;BME280;18221;38.704;0.152;2023-02-28T12:47:31;98871.34;;;16.13;26.02
10176;BME280;18221;38.704;0.152;2023-02-28T12:50:05;98873.31;;;16.19;24.81
10176;BME280;18221;38.704;0.152;2023-02-28T12:52:41;98869.84;;;16.33;25.79
10176;BME280;18221;38.704;0.152;2023-02-28T12:55:21;98868.78;;;16.42;25.91
10176;BME280;18221;38.704;0.152;2023-02-28T12:58:05;98865.38;;;16.25;25.65
10176;BME280;18221;38.704;0.152;2023-02-28T13:00:55;98848.81;;;16.22;24.28
10176;BME280;18221;38.704;0.152;2023-02-28T13:04:08;98855.13;;;16.06;22.98
10176;BME280;18221;38.704;0.152;2023-02-28T13:07:04;98848.53;;;15.94;20.87
10176;BME280;18221;38.704;0.152;2023-02-28T13:09:37;98854.31;;;16.05;20.22
10176;BME280;18221;38.704;0.152;2023-02-28T13:12:14;98852.84;;;15.72;19.74
10176;BME280;18221;38.704;0.152;2023-02-28T13:14:43;98849.13;;;15.42;19.50
10176;BME280;18221;38.704;0.152;2023-02-28T13:17:18;98843.94;;;15.41;19.99
10176;BME280;18221;38.704;0.152;2023-02-28T13:20:00;98854.88;;;15.23;19.66
10176;BME280;18221;38.704;0.152;2023-02-28T13:22:41;98850.03;;;15.66;20.33
10176;BME280;18221;38.704;0.152;2023-02-28T13:25:53;98864.94;;;15.91;20.14
10176;BME280;18221;38.704;0.152;2023-02-28T13:29:00;98855.06;;;15.91;19.23
10176;BME280;18221;38.704;0.152;2023-02-28T13:31:31;98850.97;;;16.03;24.05
10176;BME280;18221;38.704;0.152;2023-02-28T13:34:15;98860.91;;;16.40;25.09
10176;BME280;18221;38.704;0.152;2023-02-28T13:36:44;98850.00;;;16.64;26.95
10176;BME280;18221;38.704;0.152;2023-02-28T13:39:48;98857.63;;;16.90;25.88
10176;BME280;18221;38.704;0.152;2023-02-28T13:42:47;98850.41;;;16.91;25.13
10176;BME280;18221;38.704;0.152;2023-02-28T13:45:28;98849.50;;;16.98;24.86
10176;BME280;18221;38.704;0.152;2023-02-28T13:48:00;98844.69;;;17.08;26.22
10176;BME280;18221;38.704;0.152;2023-02-28T13:50:35;98846.34;;;16.95;26.45
10176;BME280;18221;38.704;0.152;2023-02-28T13:53:54;98846.00;;;17.12;25.32
10176;BME280;18221;38.704;0.152;2023-02-28T13:56:41;98838.75;;;16.98;26.34
10176;BME280;18221;38.704;0.152;2023-02-28T13:59:26;98844.59;;;17.02;25.13